Greenbrier Valley Airport
KLWB : now visible

Airfield :











YOU CAN JOIN US ON...

 
LOGIN :

Register | Disclaimer

   EN    FR    IT 

 









Legend :    VFR   Marginal VFR   IFR   Intensive IFR   Very Intensive IFR
Visi :
Ceiling :
>= 8 km
>= 3000ft
5 to 8 km
1000 to 3000 ft
1500m to 5 km
500 to 1000 ft
800 to 1500m
200 to 500 ft
< 800m
< 200 ft
Symbols :   Thunderstorms  Fog  Heavy snow  Heavy precipitations  Wind > 20 kt






- Airport Elevation : 2302 ft


KLWB - Greenbrier Valley

CURRENT METAR :
  • 081855Z 24005KT 10SM SCT016 BKN050 16/14 A2976

EXPIRED METARs :
  • 081755Z 24008KT 10SM SCT018 BKN027 OVC060 15/14 A2979
  • 081655Z 24010KT 10SM BKN034 BKN042 OVC070 14/13 A2981

TAF KLWB
Valid from the 08 at 18:00 until the 09 at 18:00 UTC


081740Z 0818/0918 27008G17KT P6SM VCTS BKN030CB OVC100
TEMPO 0819/0821 29020G40KT 3SM TSRAGR OVC020CB
FM082200 29008KT P6SM SCT025 BKN150
FM090400 VRB03KT 4SM BR SCT003 BKN200
FM091000 27015G30KT 4SM -TSRA BR BKN017 OVC035CB
FM091400 28017G28KT P6SM SCT015 BKN050



MET'MAP, your aeronautical weather chart ! - Copyright ORBIFLY December 2007 - Disclaimer

ORBIFLY MET'MAP TEAM :

Programming & Development : Alexandra Zaïnal
Concept & original design : Baudouin d'Aumeries
Assistance for programming : Marc-Olivier Méhu
Technical & hardware support : Manuel Goepfert

Contact : metmap@orbifly.com




SOURCES & CREDITS :

   NOAA       Earth
Advisory